sensor_id;sensor_type;location;lat;lon;timestamp;temperature;humidity
1878;DHT22;939;51.426;6.972;2023-07-13T00:00:37;19.40;99.90
1878;DHT22;939;51.426;6.972;2023-07-13T00:03:04;19.40;99.90
1878;DHT22;939;51.426;6.972;2023-07-13T00:05:32;19.30;99.90
1878;DHT22;939;51.426;6.972;2023-07-13T00:07:59;19.30;99.90
1878;DHT22;939;51.426;6.972;2023-07-13T00:10:26;19.20;99.90
1878;DHT22;939;51.426;6.972;2023-07-13T00:12:53;19.20;99.90
1878;DHT22;939;51.426;6.972;2023-07-13T00:15:24;19.00;99.90
1878;DHT22;939;51.426;6.972;2023-07-13T00:17:54;19.00;99.90
1878;DHT22;939;51.426;6.972;2023-07-13T00:20:22;19.00;99.90
1878;DHT22;939;51.426;6.972;2023-07-13T00:22:50;18.90;99.90
1878;DHT22;939;51.426;6.972;2023-07-13T00:25:19;18.90;99.90
1878;DHT22;939;51.426;6.972;2023-07-13T00:27:47;18.90;99.90
1878;DHT22;939;51.426;6.972;2023-07-13T00:30:15;18.80;99.90
1878;DHT22;939;51.426;6.972;2023-07-13T00:32:42;18.70;99.90
1878;DHT22;939;51.426;6.972;2023-07-13T00:35:13;18.70;99.90
1878;DHT22;939;51.426;6.972;2023-07-13T00:37:42;18.60;99.90
1878;DHT22;939;51.426;6.972;2023-07-13T00:40:12;18.50;99.90
1878;DHT22;939;51.426;6.972;2023-07-13T00:42:41;18.40;99.90
1878;DHT22;939;51.426;6.972;2023-07-13T00:48:17;18.40;99.90
1878;DHT22;939;51.426;6.972;2023-07-13T00:50:48;18.50;99.90
1878;DHT22;939;51.426;6.972;2023-07-13T00:53:17;18.40;99.90
1878;DHT22;939;51.426;6.972;2023-07-13T06:29:24;17.50;99.90
1878;DHT22;939;51.426;6.972;2023-07-13T06:31:53;17.50;99.90
1878;DHT22;939;51.426;6.972;2023-07-13T07:02:45;18.20;99.90
1878;DHT22;939;51.426;6.972;2023-07-13T07:05:12;18.30;99.90
1878;DHT22;939;51.426;6.972;2023-07-13T07:07:39;18.30;99.90
1878;DHT22;939;51.426;6.972;2023-07-13T07:10:07;18.40;99.90
1878;DHT22;939;51.426;6.972;2023-07-13T07:12:51;18.60;99.90
1878;DHT22;939;51.426;6.972;2023-07-13T07:15:18;18.60;99.90
1878;DHT22;939;51.426;6.972;2023-07-13T07:17:47;18.60;99.90
1878;DHT22;939;51.426;6.972;2023-07-13T07:20:14;18.70;99.90
1878;DHT22;939;51.426;6.972;2023-07-13T07:22:42;18.80;99.90
1878;DHT22;939;51.426;6.972;2023-07-13T07:25:09;18.90;99.90
1878;DHT22;939;51.426;6.972;2023-07-13T07:27:38;18.90;99.90
1878;DHT22;939;51.426;6.972;2023-07-13T07:30:06;18.80;99.90
1878;DHT22;939;51.426;6.972;2023-07-13T07:32:34;18.70;99.90
1878;DHT22;939;51.426;6.972;2023-07-13T07:35:02;18.60;99.90
1878;DHT22;939;51.426;6.972;2023-07-13T07:37:32;18.80;99.90
1878;DHT22;939;51.426;6.972;2023-07-13T07:39:59;18.90;99.90
1878;DHT22;939;51.426;6.972;2023-07-13T07:42:28;18.90;99.90
1878;DHT22;939;51.426;6.972;2023-07-13T07:44:56;19.00;99.90
1878;DHT22;939;51.426;6.972;2023-07-13T07:47:22;19.10;99.90
1878;DHT22;939;51.426;6.972;2023-07-13T07:49:50;19.20;99.90
1878;DHT22;939;51.426;6.972;2023-07-13T07:52:21;19.30;99.90
1878;DHT22;939;51.426;6.972;2023-07-13T07:54:48;19.30;99.90
1878;DHT22;939;51.426;6.972;2023-07-13T07:57:15;19.30;99.90
1878;DHT22;939;51.426;6.972;2023-07-13T07:59:45;19.30;99.90
1878;DHT22;939;51.426;6.972;2023-07-13T08:02:12;19.50;99.90
1878;DHT22;939;51.426;6.972;2023-07-13T08:04:40;19.40;99.90
1878;DHT22;939;51.426;6.972;2023-07-13T08:07:08;19.20;99.90
1878;DHT22;939;51.426;6.972;2023-07-13T08:09:39;19.20;99.90
1878;DHT22;939;51.426;6.972;2023-07-13T08:12:07;19.40;99.90
1878;DHT22;939;51.426;6.972;2023-07-13T08:14:34;19.40;99.90
1878;DHT22;939;51.426;6.972;2023-07-13T08:17:01;19.60;99.90
1878;DHT22;939;51.426;6.972;2023-07-13T08:19:28;19.80;99.90
1878;DHT22;939;51.426;6.972;2023-07-13T08:21:59;19.70;99.90
1878;DHT22;939;51.426;6.972;2023-07-13T08:24:26;19.70;99.90
1878;DHT22;939;51.426;6.972;2023-07-13T08:26:55;19.50;99.90
1878;DHT22;939;51.426;6.972;2023-07-13T08:29:23;19.60;99.90
1878;DHT22;939;51.426;6.972;2023-07-13T08:31:51;19.70;99.90
1878;DHT22;939;51.426;6.972;2023-07-13T08:34:18;19.50;99.90
1878;DHT22;939;51.426;6.972;2023-07-13T08:36:46;19.70;99.90
1878;DHT22;939;51.426;6.972;2023-07-13T08:39:12;19.60;99.90
1878;DHT22;939;51.426;6.972;2023-07-13T08:41:40;19.60;99.90
1878;DHT22;939;51.426;6.972;2023-07-13T08:44:16;19.70;99.90
1878;DHT22;939;51.426;6.972;2023-07-13T08:46:46;19.50;99.90
1878;DHT22;939;51.426;6.972;2023-07-13T08:49:17;19.40;99.90
1878;DHT22;939;51.426;6.972;2023-07-13T08:51:51;19.40;99.90
1878;DHT22;939;51.426;6.972;2023-07-13T08:54:24;19.50;99.90
1878;DHT22;939;51.426;6.972;2023-07-13T08:57:03;19.50;99.90
1878;DHT22;939;51.426;6.972;2023-07-13T08:59:37;19.50;99.90
1878;DHT22;939;51.426;6.972;2023-07-13T09:02:17;19.70;99.90
1878;DHT22;939;51.426;6.972;2023-07-13T09:04:48;19.70;99.90
1878;DHT22;939;51.426;6.972;2023-07-13T09:07:23;20.00;99.90
1878;DHT22;939;51.426;6.972;2023-07-13T09:10:06;20.20;99.90
1878;DHT22;939;51.426;6.972;2023-07-13T09:12:45;20.20;99.90
1878;DHT22;939;51.426;6.972;2023-07-13T09:15:24;20.30;99.90
1878;DHT22;939;51.426;6.972;2023-07-13T09:17:55;20.40;99.90
1878;DHT22;939;51.426;6.972;2023-07-13T09:20:28;20.50;99.90
1878;DHT22;939;51.426;6.972;2023-07-13T09:22:59;20.50;99.90
1878;DHT22;939;51.426;6.972;2023-07-13T09:25:31;20.50;99.90
1878;DHT22;939;51.426;6.972;2023-07-13T09:28:10;20.60;99.90
1878;DHT22;939;51.426;6.972;2023-07-13T09:30:46;20.50;99.90
1878;DHT22;939;51.426;6.972;2023-07-13T09:33:13;20.70;99.90
1878;DHT22;939;51.426;6.972;2023-07-13T09:35:47;20.80;99.90
1878;DHT22;939;51.426;6.972;2023-07-13T09:38:17;20.80;99.90
1878;DHT22;939;51.426;6.972;2023-07-13T09:40:53;20.80;99.90
1878;DHT22;939;51.426;6.972;2023-07-13T09:43:24;20.70;99.90
1878;DHT22;939;51.426;6.972;2023-07-13T09:45:58;20.90;99.90
1878;DHT22;939;51.426;6.972;2023-07-13T09:48:25;21.10;99.90
1878;DHT22;939;51.426;6.972;2023-07-13T09:50:54;21.30;99.90
1878;DHT22;939;51.426;6.972;2023-07-13T09:53:22;21.30;99.90
1878;DHT22;939;51.426;6.972;2023-07-13T09:55:50;21.30;99.90
1878;DHT22;939;51.426;6.972;2023-07-13T09:58:18;21.30;99.90
1878;DHT22;939;51.426;6.972;2023-07-13T10:00:56;21.30;99.90
1878;DHT22;939;51.426;6.972;2023-07-13T10:03:31;21.50;99.90
1878;DHT22;939;51.426;6.972;2023-07-13T10:06:11;21.80;99.90
1878;DHT22;939;51.426;6.972;2023-07-13T10:08:38;22.20;99.90
1878;DHT22;939;51.426;6.972;2023-07-13T10:11:10;22.30;99.90
1878;DHT22;939;51.426;6.972;2023-07-13T10:13:42;22.60;99.90
1878;DHT22;939;51.426;6.972;2023-07-13T10:16:11;22.70;99.90
1878;DHT22;939;51.426;6.972;2023-07-13T10:18:43;23.00;99.90
1878;DHT22;939;51.426;6.972;2023-07-13T10:21:15;23.10;99.90
1878;DHT22;939;51.426;6.972;2023-07-13T10:23:43;23.00;99.90
1878;DHT22;939;51.426;6.972;2023-07-13T10:26:16;22.70;99.90
1878;DHT22;939;51.426;6.972;2023-07-13T10:28:49;22.80;99.90
1878;DHT22;939;51.426;6.972;2023-07-13T10:31:20;22.80;99.90
1878;DHT22;939;51.426;6.972;2023-07-13T10:33:48;22.80;99.90
1878;DHT22;939;51.426;6.972;2023-07-13T10:36:32;23.60;99.90
1878;DHT22;939;51.426;6.972;2023-07-13T10:39:03;24.10;99.50
1878;DHT22;939;51.426;6.972;2023-07-13T10:41:34;24.00;98.00
1878;DHT22;939;51.426;6.972;2023-07-13T10:44:04;23.70;98.50
1878;DHT22;939;51.426;6.972;2023-07-13T10:46:37;23.40;99.50
1878;DHT22;939;51.426;6.972;2023-07-13T10:49:06;23.20;99.90
1878;DHT22;939;51.426;6.972;2023-07-13T10:51:34;23.80;99.90
1878;DHT22;939;51.426;6.972;2023-07-13T10:54:19;24.70;97.60
1878;DHT22;939;51.426;6.972;2023-07-13T10:57:06;24.60;95.90
1878;DHT22;939;51.426;6.972;2023-07-13T10:59:34;24.30;96.50
1878;DHT22;939;51.426;6.972;2023-07-13T11:02:15;25.40;95.40
1878;DHT22;939;51.426;6.972;2023-07-13T11:04:53;26.00;92.10
1878;DHT22;939;51.426;6.972;2023-07-13T11:07:22;26.80;91.30
1878;DHT22;939;51.426;6.972;2023-07-13T11:09:51;27.30;90.70
1878;DHT22;939;51.426;6.972;2023-07-13T11:12:50;28.50;83.90
1878;DHT22;939;51.426;6.972;2023-07-13T11:15:32;28.80;74.80
1878;DHT22;939;51.426;6.972;2023-07-13T11:18:04;28.20;73.40
1878;DHT22;939;51.426;6.972;2023-07-13T11:20:43;26.70;73.00
1878;DHT22;939;51.426;6.972;2023-07-13T11:23:30;25.80;77.00
1878;DHT22;939;51.426;6.972;2023-07-13T11:25:58;26.00;85.00
1878;DHT22;939;51.426;6.972;2023-07-13T11:28:29;26.50;81.40
1878;DHT22;939;51.426;6.972;2023-07-13T11:31:03;27.50;78.80
1878;DHT22;939;51.426;6.972;2023-07-13T11:33:56;28.80;75.70
1878;DHT22;939;51.426;6.972;2023-07-13T11:36:32;30.20;63.70
1878;DHT22;939;51.426;6.972;2023-07-13T11:39:32;29.60;57.80
1878;DHT22;939;51.426;6.972;2023-07-13T11:42:11;28.10;62.10
1878;DHT22;939;51.426;6.972;2023-07-13T11:44:43;26.70;65.10
1878;DHT22;939;51.426;6.972;2023-07-13T11:47:24;26.00;69.80
1878;DHT22;939;51.426;6.972;2023-07-13T11:49:55;26.50;79.30
1878;DHT22;939;51.426;6.972;2023-07-13T11:52:26;26.60;71.80
1878;DHT22;939;51.426;6.972;2023-07-13T11:54:56;26.50;70.30
1878;DHT22;939;51.426;6.972;2023-07-13T11:57:28;26.30;69.30
1878;DHT22;939;51.426;6.972;2023-07-13T11:59:59;26.50;70.70
1878;DHT22;939;51.426;6.972;2023-07-13T12:02:35;26.60;69.70
1878;DHT22;939;51.426;6.972;2023-07-13T12:05:05;26.30;67.40
1878;DHT22;939;51.426;6.972;2023-07-13T12:07:35;25.90;67.50
1878;DHT22;939;51.426;6.972;2023-07-13T12:13:15;25.90;68.20
1878;DHT22;939;51.426;6.972;2023-07-13T12:15:44;25.80;70.00
1878;DHT22;939;51.426;6.972;2023-07-13T12:18:29;25.80;68.30
1878;DHT22;939;51.426;6.972;2023-07-13T12:21:01;25.80;68.20
1878;DHT22;939;51.426;6.972;2023-07-13T12:23:30;25.80;69.10
1878;DHT22;939;51.426;6.972;2023-07-13T12:26:00;25.80;69.20
1878;DHT22;939;51.426;6.972;2023-07-13T12:28:34;25.60;68.20
1878;DHT22;939;51.426;6.972;2023-07-13T12:31:03;25.30;69.30
1878;DHT22;939;51.426;6.972;2023-07-13T12:33:34;24.90;68.10
1878;DHT22;939;51.426;6.972;2023-07-13T12:36:06;24.60;66.00
1878;DHT22;939;51.426;6.972;2023-07-13T12:38:33;24.50;69.80
1878;DHT22;939;51.426;6.972;2023-07-13T12:41:01;24.50;74.00
1878;DHT22;939;51.426;6.972;2023-07-13T12:43:33;24.30;72.50
1878;DHT22;939;51.426;6.972;2023-07-13T12:46:05;24.20;74.30
1878;DHT22;939;51.426;6.972;2023-07-13T12:48:42;24.30;73.10
1878;DHT22;939;51.426;6.972;2023-07-13T12:51:12;23.90;70.80
1878;DHT22;939;51.426;6.972;2023-07-13T12:53:42;23.80;73.90
1878;DHT22;939;51.426;6.972;2023-07-13T12:56:18;23.70;77.40
1878;DHT22;939;51.426;6.972;2023-07-13T12:58:47;23.70;73.20
1878;DHT22;939;51.426;6.972;2023-07-13T13:01:21;23.60;76.70
1878;DHT22;939;51.426;6.972;2023-07-13T13:03:51;23.50;77.80
1878;DHT22;939;51.426;6.972;2023-07-13T13:06:25;23.30;77.20
1878;DHT22;939;51.426;6.972;2023-07-13T13:08:55;23.20;77.70
1878;DHT22;939;51.426;6.972;2023-07-13T13:11:25;22.80;80.50
1878;DHT22;939;51.426;6.972;2023-07-13T13:13:53;22.80;79.80
1878;DHT22;939;51.426;6.972;2023-07-13T13:16:22;22.60;87.30
1878;DHT22;939;51.426;6.972;2023-07-13T13:19:05;22.60;92.80
1878;DHT22;939;51.426;6.972;2023-07-13T13:21:42;22.60;99.90
1878;DHT22;939;51.426;6.972;2023-07-13T13:24:12;22.60;99.90
1878;DHT22;939;51.426;6.972;2023-07-13T13:26:39;22.50;99.90
1878;DHT22;939;51.426;6.972;2023-07-13T13:29:12;22.30;99.90
1878;DHT22;939;51.426;6.972;2023-07-13T13:31:40;22.20;99.90
1878;DHT22;939;51.426;6.972;2023-07-13T13:34:10;22.00;99.90
1878;DHT22;939;51.426;6.972;2023-07-13T13:36:39;22.10;99.90
1878;DHT22;939;51.426;6.972;2023-07-13T13:39:19;22.20;99.90
1878;DHT22;939;51.426;6.972;2023-07-13T13:41:48;22.30;99.90
1878;DHT22;939;51.426;6.972;2023-07-13T13:44:23;22.60;99.90
1878;DHT22;939;51.426;6.972;2023-07-13T13:46:53;22.80;99.90
1878;DHT22;939;51.426;6.972;2023-07-13T13:49:29;23.00;99.90
1878;DHT22;939;51.426;6.972;2023-07-13T13:52:12;23.10;99.90
1878;DHT22;939;51.426;6.972;2023-07-13T13:54:39;23.30;99.90
1878;DHT22;939;51.426;6.972;2023-07-13T13:57:09;23.40;99.90
1878;DHT22;939;51.426;6.972;2023-07-13T13:59:39;23.40;99.90
1878;DHT22;939;51.426;6.972;2023-07-13T14:02:21;23.20;99.90
1878;DHT22;939;51.426;6.972;2023-07-13T14:04:51;23.20;99.90
1878;DHT22;939;51.426;6.972;2023-07-13T14:07:21;23.10;99.90
1878;DHT22;939;51.426;6.972;2023-07-13T14:09:49;23.00;99.90
1878;DHT22;939;51.426;6.972;2023-07-13T14:12:16;22.90;99.90
1878;DHT22;939;51.426;6.972;2023-07-13T14:14:44;22.70;99.90
1878;DHT22;939;51.426;6.972;2023-07-13T14:17:19;22.50;99.90
1878;DHT22;939;51.426;6.972;2023-07-13T14:19:47;22.40;99.90
1878;DHT22;939;51.426;6.972;2023-07-13T14:22:16;22.40;99.90
1878;DHT22;939;51.426;6.972;2023-07-13T14:24:46;22.30;99.90
1878;DHT22;939;51.426;6.972;2023-07-13T14:27:13;22.20;99.90
1878;DHT22;939;51.426;6.972;2023-07-13T14:29:41;22.20;99.90
1878;DHT22;939;51.426;6.972;2023-07-13T14:32:10;22.00;99.90
1878;DHT22;939;51.426;6.972;2023-07-13T14:34:37;21.90;99.90
1878;DHT22;939;51.426;6.972;2023-07-13T14:37:05;21.90;99.90
1878;DHT22;939;51.426;6.972;2023-07-13T14:39:39;21.80;99.90
1878;DHT22;939;51.426;6.972;2023-07-13T14:42:10;21.60;99.90
1878;DHT22;939;51.426;6.972;2023-07-13T15:36:25;21.30;99.90
1878;DHT22;939;51.426;6.972;2023-07-13T15:38:53;20.80;99.90
1878;DHT22;939;51.426;6.972;2023-07-13T15:41:22;20.20;99.90
1878;DHT22;939;51.426;6.972;2023-07-13T15:43:50;19.80;99.90
1878;DHT22;939;51.426;6.972;2023-07-13T15:46:18;19.70;99.90
1878;DHT22;939;51.426;6.972;2023-07-13T15:48:46;19.60;99.90
1878;DHT22;939;51.426;6.972;2023-07-13T15:51:19;19.30;99.90
1878;DHT22;939;51.426;6.972;2023-07-13T15:53:48;19.40;99.90
1878;DHT22;939;51.426;6.972;2023-07-13T15:56:19;19.40;99.90
1878;DHT22;939;51.426;6.972;2023-07-13T15:58:47;19.40;99.90
1878;DHT22;939;51.426;6.972;2023-07-13T16:01:14;19.40;99.90
1878;DHT22;939;51.426;6.972;2023-07-13T16:03:41;19.30;99.90
1878;DHT22;939;51.426;6.972;2023-07-13T16:06:14;19.30;99.90
1878;DHT22;939;51.426;6.972;2023-07-13T16:08:42;19.30;99.90
1878;DHT22;939;51.426;6.972;2023-07-13T16:11:16;19.30;99.90
1878;DHT22;939;51.426;6.972;2023-07-13T16:13:46;19.30;99.90
1878;DHT22;939;51.426;6.972;2023-07-13T16:16:14;19.20;99.90
1878;DHT22;939;51.426;6.972;2023-07-13T16:18:41;19.10;99.90
1878;DHT22;939;51.426;6.972;2023-07-13T16:21:13;19.20;99.90
1878;DHT22;939;51.426;6.972;2023-07-13T16:23:41;19.00;99.90
1878;DHT22;939;51.426;6.972;2023-07-13T16:26:22;19.00;99.90
1878;DHT22;939;51.426;6.972;2023-07-13T16:28:49;19.00;99.90
1878;DHT22;939;51.426;6.972;2023-07-13T16:31:26;19.00;99.90
1878;DHT22;939;51.426;6.972;2023-07-13T16:33:53;19.00;99.90
1878;DHT22;939;51.426;6.972;2023-07-13T16:36:20;19.20;99.90
1878;DHT22;939;51.426;6.972;2023-07-13T16:38:47;19.20;99.90
1878;DHT22;939;51.426;6.972;2023-07-13T16:41:16;19.20;99.90
1878;DHT22;939;51.426;6.972;2023-07-13T16:43:42;19.20;99.90
1878;DHT22;939;51.426;6.972;2023-07-13T16:46:11;19.20;99.90
1878;DHT22;939;51.426;6.972;2023-07-13T16:48:40;19.30;99.90
1878;DHT22;939;51.426;6.972;2023-07-13T16:51:07;19.30;99.90
1878;DHT22;939;51.426;6.972;2023-07-13T16:53:34;19.40;99.90
1878;DHT22;939;51.426;6.972;2023-07-13T16:56:02;19.40;99.90
1878;DHT22;939;51.426;6.972;2023-07-13T16:58:33;19.50;99.90
1878;DHT22;939;51.426;6.972;2023-07-13T17:01:01;19.40;99.90
1878;DHT22;939;51.426;6.972;2023-07-13T17:03:29;19.50;99.90
1878;DHT22;939;51.426;6.972;2023-07-13T17:05:58;19.50;99.90
1878;DHT22;939;51.426;6.972;2023-07-13T17:08:28;19.60;99.90
1878;DHT22;939;51.426;6.972;2023-07-13T17:10:58;19.60;99.90
1878;DHT22;939;51.426;6.972;2023-07-13T17:13:26;19.50;99.90
1878;DHT22;939;51.426;6.972;2023-07-13T17:15:55;19.50;99.90
1878;DHT22;939;51.426;6.972;2023-07-13T17:18:23;19.50;99.90
1878;DHT22;939;51.426;6.972;2023-07-13T17:20:50;19.50;99.90
1878;DHT22;939;51.426;6.972;2023-07-13T17:23:19;19.60;99.90
1878;DHT22;939;51.426;6.972;2023-07-13T17:25:47;19.50;99.90
1878;DHT22;939;51.426;6.972;2023-07-13T17:28:15;19.50;99.90
1878;DHT22;939;51.426;6.972;2023-07-13T17:30:43;19.50;99.90
1878;DHT22;939;51.426;6.972;2023-07-13T17:33:22;19.50;99.90
1878;DHT22;939;51.426;6.972;2023-07-13T17:35:53;19.60;99.90
1878;DHT22;939;51.426;6.972;2023-07-13T17:38:20;19.70;99.90
1878;DHT22;939;51.426;6.972;2023-07-13T17:40:47;19.70;99.90
1878;DHT22;939;51.426;6.972;2023-07-13T17:43:14;19.70;99.90
1878;DHT22;939;51.426;6.972;2023-07-13T17:45:41;19.80;99.90
1878;DHT22;939;51.426;6.972;2023-07-13T17:48:09;19.80;99.90
1878;DHT22;939;51.426;6.972;2023-07-13T17:50:38;19.80;99.90
1878;DHT22;939;51.426;6.972;2023-07-13T17:53:13;19.90;99.90
1878;DHT22;939;51.426;6.972;2023-07-13T17:55:41;19.80;99.90
1878;DHT22;939;51.426;6.972;2023-07-13T17:58:08;19.70;99.90
1878;DHT22;939;51.426;6.972;2023-07-13T18:00:37;19.80;99.90
1878;DHT22;939;51.426;6.972;2023-07-13T18:03:12;19.80;99.90
1878;DHT22;939;51.426;6.972;2023-07-13T18:05:41;20.00;99.90
1878;DHT22;939;51.426;6.972;2023-07-13T18:08:20;20.00;99.90
1878;DHT22;939;51.426;6.972;2023-07-13T18:10:47;20.10;99.90
1878;DHT22;939;51.426;6.972;2023-07-13T18:13:16;20.10;99.90
1878;DHT22;939;51.426;6.972;2023-07-13T18:15:43;20.20;99.90
1878;DHT22;939;51.426;6.972;2023-07-13T18:18:11;20.20;99.90
1878;DHT22;939;51.426;6.972;2023-07-13T18:20:41;20.30;99.90
1878;DHT22;939;51.426;6.972;2023-07-13T18:23:15;20.20;99.90
1878;DHT22;939;51.426;6.972;2023-07-13T18:25:43;20.00;99.90
1878;DHT22;939;51.426;6.972;2023-07-13T18:28:13;19.90;99.90
1878;DHT22;939;51.426;6.972;2023-07-13T18:30:42;20.00;99.90
1878;DHT22;939;51.426;6.972;2023-07-13T18:33:16;20.00;99.90
1878;DHT22;939;51.426;6.972;2023-07-13T18:35:45;20.00;99.90
1878;DHT22;939;51.426;6.972;2023-07-13T18:38:16;19.90;99.90
1878;DHT22;939;51.426;6.972;2023-07-13T18:40:44;19.90;99.90
1878;DHT22;939;51.426;6.972;2023-07-13T18:43:11;19.80;99.90
1878;DHT22;939;51.426;6.972;2023-07-13T18:45:39;19.60;99.90
1878;DHT22;939;51.426;6.972;2023-07-13T18:48:11;19.50;99.90
1878;DHT22;939;51.426;6.972;2023-07-13T18:50:39;19.60;99.90
1878;DHT22;939;51.426;6.972;2023-07-13T18:53:13;19.70;99.90
1878;DHT22;939;51.426;6.972;2023-07-13T18:55:41;19.70;99.90
1878;DHT22;939;51.426;6.972;2023-07-13T18:58:08;19.70;99.90
1878;DHT22;939;51.426;6.972;2023-07-13T19:00:35;19.70;99.90
1878;DHT22;939;51.426;6.972;2023-07-13T19:03:02;19.70;99.90
1878;DHT22;939;51.426;6.972;2023-07-13T19:05:32;19.70;99.90
1878;DHT22;939;51.426;6.972;2023-07-13T19:08:00;19.60;99.90
1878;DHT22;939;51.426;6.972;2023-07-13T19:10:31;19.60;99.90
1878;DHT22;939;51.426;6.972;2023-07-13T19:12:59;19.60;99.90
1878;DHT22;939;51.426;6.972;2023-07-13T19:15:30;19.50;99.90
1878;DHT22;939;51.426;6.972;2023-07-13T19:17:58;19.50;99.90
1878;DHT22;939;51.426;6.972;2023-07-13T19:20:27;19.40;99.90
1878;DHT22;939;51.426;6.972;2023-07-13T19:22:56;19.20;99.90
1878;DHT22;939;51.426;6.972;2023-07-13T19:25:24;19.20;99.90
1878;DHT22;939;51.426;6.972;2023-07-13T19:27:58;19.30;99.90
1878;DHT22;939;51.426;6.972;2023-07-13T19:30:25;19.30;99.90
1878;DHT22;939;51.426;6.972;2023-07-13T19:32:53;19.20;99.90
1878;DHT22;939;51.426;6.972;2023-07-13T19:35:20;19.10;99.90
1878;DHT22;939;51.426;6.972;2023-07-13T19:37:48;18.70;99.90
1878;DHT22;939;51.426;6.972;2023-07-13T19:40:19;18.60;99.90
1878;DHT22;939;51.426;6.972;2023-07-13T19:42:47;18.70;99.90
1878;DHT22;939;51.426;6.972;2023-07-13T19:45:18;18.70;99.90
1878;DHT22;939;51.426;6.972;2023-07-13T19:47:46;18.80;99.90
1878;DHT22;939;51.426;6.972;2023-07-13T19:50:14;18.90;99.90
1878;DHT22;939;51.426;6.972;2023-07-13T19:52:46;18.80;99.90
1878;DHT22;939;51.426;6.972;2023-07-13T19:55:18;18.80;99.90
1878;DHT22;939;51.426;6.972;2023-07-13T19:57:47;18.80;99.90
1878;DHT22;939;51.426;6.972;2023-07-13T20:00:17;18.80;99.90
1878;DHT22;939;51.426;6.972;2023-07-13T20:02:45;18.70;99.90
1878;DHT22;939;51.426;6.972;2023-07-13T20:05:14;18.60;99.90
1878;DHT22;939;51.426;6.972;2023-07-13T20:07:42;18.40;99.90
1878;DHT22;939;51.426;6.972;2023-07-13T20:10:18;18.50;99.90
1878;DHT22;939;51.426;6.972;2023-07-13T20:12:46;18.50;99.90
1878;DHT22;939;51.426;6.972;2023-07-13T20:15:16;18.50;99.90
1878;DHT22;939;51.426;6.972;2023-07-13T20:17:45;18.50;99.90
1878;DHT22;939;51.426;6.972;2023-07-13T20:20:22;18.50;99.90
1878;DHT22;939;51.426;6.972;2023-07-13T20:22:51;18.20;99.90
1878;DHT22;939;51.426;6.972;2023-07-13T20:25:21;18.10;99.90
1878;DHT22;939;51.426;6.972;2023-07-13T20:27:49;18.10;99.90
1878;DHT22;939;51.426;6.972;2023-07-13T20:30:18;18.00;99.90
1878;DHT22;939;51.426;6.972;2023-07-13T20:32:46;18.00;99.90
1878;DHT22;939;51.426;6.972;2023-07-13T20:35:29;17.90;99.90
1878;DHT22;939;51.426;6.972;2023-07-13T20:37:58;18.10;99.90
1878;DHT22;939;51.426;6.972;2023-07-13T20:40:26;18.20;99.90
1878;DHT22;939;51.426;6.972;2023-07-13T20:42:54;18.20;99.90
